Aviation Digital Data Service (ADDS)

Output produced by TAFs form (1321 UTC 25 February 2018)
found at http://aviationweather.gov/adds/tafs/
 
KEGE 251134Z 2512/2612 VRB04KT P6SM VCSH SCT060 BKN100 
     FM251900 23015G25KT P6SM SCT070 BKN150 
     FM260200 11005KT P6SM FEW080 SCT250 
     FM260400 VRB03KT P6SM FEW090 SCT250 AMD LTD TO CLD VIS AND WIND TIL 251400